Time;durP1;ratioP1;P1;durP2;ratioP2;P2;SDS_P1;SDS_P2;PMS_P1;PMS_P2;Temp;Humidity;BMP_temperature;BMP_pressure;BME280_temperature;BME280_humidity;BME280_pressure;Samples;Min_cycle;Max_cycle;Signal;HPM_P1;HPM_P2
2022/07/19 00:35:31;;;;;;;;;;;;;;;;;;;;;
2022/07/19 00:53:47;;;;;;;;;;;;;;;;;;;;;
2022/07/19 01:00:39;;;;;;;;;;;;;;;;;;;;;
2022/07/19 05:32:52;;;;;;;;;;;;;;;;;;;;;
2022/07/19 05:36:11;;;;;;;;;;;;;;;;;;;;;
2022/07/19 06:43:33;;;;;;;;;12.33;12.33;;;;;30.16;29.57;100570.03;5032638;23;47216;-86
2022/07/19 06:46:01;;;;;;;;;13.67;12.00;;;;;30.15;29.03;100557.34;4895116;29;47665;-86
2022/07/19 06:49:03;;;;;;;;;11.00;11.00;;;;;30.53;28.88;100594.91;4897087;29;45240;-86
2022/07/19 06:51:40;;;;;;;;;12.33;12.33;;;;;30.60;28.61;100591.63;4872298;29;45501;-85
2022/07/19 06:57:42;;;;;;;;;13.00;12.67;;;;;30.78;28.35;100602.22;4918672;28;45464;-86
2022/07/19 07:04:35;;;;;;;;;11.33;11.33;;;;;30.99;28.48;100583.34;5251565;23;46264;-86
2022/07/19 07:32:45;;;;;;;;;17.33;14.00;;;;;31.87;26.47;100561.97;5007120;23;45300;-84
2022/07/19 07:39:28;;;;;;;;;15.33;14.33;;;;;32.23;26.34;100570.22;4803012;29;44882;-85
2022/07/19 07:41:55;;;;;;;;;11.33;11.33;;;;;32.16;26.36;100539.56;4773640;29;45539;-84
2022/07/19 07:44:40;;;;;;;;;10.67;9.33;;;;;32.21;26.09;100528.19;4791671;29;48121;-85
2022/07/19 07:48:04;;;;;;;;;13.00;11.00;;;;;32.50;25.93;100556.13;4801678;29;45564;-84
2022/07/19 07:50:40;;;;;;;;;15.00;13.00;;;;;32.57;25.48;100557.38;4772313;29;45461;-84
2022/07/19 07:53:24;;;;;;;;;11.00;11.00;;;;;32.62;25.45;100554.25;4783973;29;45472;-86
2022/07/19 07:59:46;;;;;;;;;14.00;14.00;;;;;32.71;25.41;100549.88;4801110;29;45891;-85
2022/07/19 08:02:12;;;;;;;;;17.33;15.00;;;;;32.72;25.73;100543.34;4852910;29;44901;-84
2022/07/19 08:04:39;;;;;;;;;10.33;10.33;;;;;32.78;25.68;100540.97;4924399;23;46714;-85
2022/07/19 08:07:04;;;;;;;;;15.00;11.67;;;;;32.86;25.43;100538.47;4896756;29;47815;-84
2022/07/19 08:09:31;;;;;;;;;11.00;11.00;;;;;32.98;25.68;100535.69;4916711;29;44799;-83
2022/07/19 08:12:00;;;;;;;;;16.00;15.67;;;;;33.12;24.95;100532.69;4900738;29;44807;-85
2022/07/19 08:14:25;;;;;;;;;13.00;13.00;;;;;33.20;24.97;100535.66;4917242;29;44944;-85
2022/07/19 08:17:00;;;;;;;;;14.00;11.67;;;;;33.24;24.91;100528.03;4899213;29;47007;-85
2022/07/19 08:19:26;;;;;;;;;13.33;13.33;;;;;33.28;25.00;100524.88;4912381;29;45488;-85
2022/07/19 08:21:54;;;;;;;;;16.67;16.67;;;;;33.26;24.26;100510.34;4915865;29;45405;-83
2022/07/19 08:24:19;;;;;;;;;17.00;14.33;;;;;33.35;23.89;100524.34;4917001;29;44891;-85
2022/07/19 08:26:45;;;;;;;;;11.00;10.00;;;;;33.36;24.05;100528.88;4914503;29;45330;-85
2022/07/19 08:29:12;;;;;;;;;14.67;13.33;;;;;33.45;24.14;100530.81;4913159;28;44916;-82
2022/07/19 08:32:02;;;;;;;;;16.00;15.00;;;;;33.58;24.23;100526.00;4914359;29;45620;-86
2022/07/19 08:34:28;;;;;;;;;16.00;14.00;;;;;33.64;24.09;100519.13;4915402;29;44732;-85
2022/07/19 08:36:53;;;;;;;;;13.00;13.00;;;;;33.64;23.67;100500.69;4896197;29;45490;-84
2022/07/19 08:39:19;;;;;;;;;13.67;11.33;;;;;33.75;23.59;100512.66;4881198;29;45440;-86
2022/07/19 08:41:46;;;;;;;;;16.00;14.33;;;;;33.81;23.61;100509.38;4893678;29;45391;-84
2022/07/19 08:44:12;;;;;;;;;14.33;14.33;;;;;33.81;23.39;100512.13;4880795;29;45399;-85
2022/07/19 08:46:40;;;;;;;;;13.67;12.67;;;;;33.86;23.30;100509.84;4879565;29;47051;-85
2022/07/19 08:49:07;;;;;;;;;14.67;13.67;;;;;33.88;23.06;100508.69;4896035;29;44832;-84
2022/07/19 08:51:34;;;;;;;;;14.33;14.33;;;;;33.83;22.60;100496.31;4911815;29;45333;-84
2022/07/19 08:53:59;;;;;;;;;15.67;15.67;;;;;33.82;23.41;100494.56;4897298;29;45454;-85
2022/07/19 08:59:09;;;;;;;;;13.00;13.00;;;;;33.94;22.42;100492.63;4914140;29;45332;-85
2022/07/19 09:01:36;;;;;;;;;12.67;12.67;;;;;33.98;23.10;100483.94;4899192;29;44771;-84
2022/07/19 09:04:13;;;;;;;;;13.00;13.00;;;;;34.06;22.11;100484.13;4885073;29;45688;-83
2022/07/19 09:06:48;;;;;;;;;11.00;9.00;;;;;34.15;22.64;100490.72;4894255;29;46863;-83
2022/07/19 09:09:19;;;;;;;;;14.00;13.67;;;;;34.17;22.13;100496.13;4900715;29;45474;-83
2022/07/19 09:11:53;;;;;;;;;14.67;14.67;;;;;34.21;22.39;100481.91;4913403;29;45451;-83
2022/07/19 09:14:30;;;;;;;;;14.67;13.00;;;;;34.30;22.60;100482.97;4870096;29;44965;-84
2022/07/19 09:17:06;;;;;;;;;13.33;13.33;;;;;34.37;22.36;100477.75;4912964;29;45303;-84
2022/07/19 09:19:34;;;;;;;;;15.67;15.00;;;;;34.32;21.57;100464.38;4895766;29;45442;-85
2022/07/19 09:22:14;;;;;;;;;13.00;13.00;;;;;34.38;21.76;100468.44;4895330;29;45390;-84
2022/07/19 09:24:43;;;;;;;;;12.67;12.67;;;;;34.53;21.63;100468.97;4879834;29;45677;-84
2022/07/19 09:27:14;;;;;;;;;9.00;9.00;;;;;34.53;21.41;100457.91;4902162;29;47378;-84
2022/07/19 09:29:43;;;;;;;;;15.00;13.00;;;;;34.44;20.83;100437.53;4884776;29;45349;-86
2022/07/19 09:32:20;;;;;;;;;15.33;13.33;;;;;34.61;20.90;100458.09;4895294;29;45498;-84
2022/07/19 09:34:50;;;;;;;;;18.33;15.00;;;;;34.76;21.35;100459.44;4907217;29;45802;-84
2022/07/19 09:37:27;;;;;;;;;13.33;13.33;;;;;34.81;20.92;100468.19;4892812;29;47106;-84
2022/07/19 09:39:55;;;;;;;;;11.33;10.33;;;;;34.76;20.69;100450.28;4912114;29;45540;-84
2022/07/19 09:42:41;;;;;;;;;13.67;12.00;;;;;34.67;20.52;100424.41;4897085;29;45447;-84
2022/07/19 09:45:11;;;;;;;;;12.67;12.67;;;;;34.87;20.09;100455.72;4892254;29;45506;-84
2022/07/19 09:47:43;;;;;;;;;12.00;12.00;;;;;34.81;20.40;100435.03;4877161;29;46580;-83
2022/07/19 09:50:14;;;;;;;;;14.00;14.00;;;;;34.78;21.03;100427.03;4911856;29;45328;-84
2022/07/19 09:52:40;;;;;;;;;14.67;12.33;;;;;34.98;20.30;100441.75;4894599;29;45296;-84
2022/07/19 09:55:08;;;;;;;;;12.67;12.67;;;;;35.14;20.15;100457.75;4897261;29;45639;-84
2022/07/19 09:57:38;;;;;;;;;14.00;14.00;;;;;35.16;20.39;100444.69;4913650;29;45411;-84
2022/07/19 10:00:05;;;;;;;;;12.67;12.67;;;;;35.20;20.45;100435.09;4901072;28;45406;-84
2022/07/19 10:02:38;;;;;;;;;12.67;11.00;;;;;35.21;20.20;100428.56;4916114;28;45494;-84
2022/07/19 10:05:06;;;;;;;;;12.00;11.67;;;;;35.36;20.40;100428.13;4867207;29;45558;-84
2022/07/19 10:07:33;;;;;;;;;13.00;12.67;;;;;35.45;19.38;100432.78;4873997;29;47192;-84
2022/07/19 10:10:05;;;;;;;;;14.00;13.33;;;;;35.44;19.49;100414.44;4884785;29;45338;-84
2022/07/19 10:12:39;;;;;;;;;14.00;13.00;;;;;35.52;19.96;100414.56;4893182;29;45413;-84
2022/07/19 10:15:07;;;;;;;;;12.67;12.67;;;;;35.57;20.25;100415.00;4895000;29;45519;-85
2022/07/19 10:17:37;;;;;;;;;12.67;12.00;;;;;35.55;19.68;100389.38;4895650;29;47064;-84
2022/07/19 10:20:06;;;;;;;;;11.67;11.00;;;;;35.71;19.67;100393.44;4895872;29;44871;-84
2022/07/19 10:22:33;;;;;;;;;11.67;11.67;;;;;35.78;18.58;100394.59;4895672;29;45471;-85
2022/07/19 10:25:04;;;;;;;;;8.67;7.33;;;;;35.85;18.51;100398.47;4895396;29;45721;-84
2022/07/19 10:27:29;;;;;;;;;13.33;12.33;;;;;35.90;19.14;100395.28;4908887;29;47134;-84
2022/07/19 10:29:58;;;;;;;;;11.33;8.67;;;;;35.99;18.11;100398.00;4895030;29;45453;-84
2022/07/19 10:32:31;;;;;;;;;12.33;12.33;;;;;36.10;18.07;100393.28;4895910;29;45433;-86
2022/07/19 10:35:17;;;;;;;;;12.00;10.67;;;;;36.18;18.37;100397.09;4897042;29;45597;-85
2022/07/19 10:37:45;;;;;;;;;11.33;11.00;;;;;36.23;18.18;100382.78;4896354;29;45521;-84
2022/07/19 10:40:11;;;;;;;;;14.00;12.00;;;;;36.31;18.18;100388.41;4897248;29;45394;-83
2022/07/19 10:42:57;;;;;;;;;11.33;11.33;;;;;36.33;17.84;100372.50;4895431;29;45338;-84
2022/07/19 10:45:25;;;;;;;;;12.00;12.00;;;;;36.30;17.72;100367.31;4894889;29;45534;-85
2022/07/19 10:47:58;;;;;;;;;10.67;10.67;;;;;36.38;17.44;100369.28;4891655;29;46790;-84
2022/07/19 10:50:58;;;;;;;;;11.67;11.67;;;;;36.45;17.16;100371.28;4895871;29;45494;-84
2022/07/19 10:53:39;;;;;;;;;13.00;11.00;;;;;36.54;17.23;100368.59;4894870;29;45408;-84
2022/07/19 10:56:41;;;;;;;;;13.33;11.67;;;;;36.59;17.13;100355.16;4895873;29;44788;-84
2022/07/19 10:59:12;;;;;;;;;9.00;9.00;;;;;36.67;16.46;100358.03;4896401;29;47163;-84
2022/07/19 11:05:01;;;;;;;;;9.33;9.33;;;;;36.87;16.19;100335.72;4904219;29;45380;-85
2022/07/19 11:07:26;;;;;;;;;12.00;9.67;;;;;36.90;15.88;100322.41;4917512;29;45413;-85
2022/07/19 11:09:57;;;;;;;;;11.00;11.00;;;;;37.02;16.13;100334.13;4916881;29;45414;-84
2022/07/19 11:12:27;;;;;;;;;11.67;11.67;;;;;37.04;15.66;100332.06;4881037;29;45403;-85
2022/07/19 11:15:49;;;;;;;;;12.67;12.67;;;;;37.14;15.52;100330.09;4881856;29;45402;-85
2022/07/19 11:18:16;;;;;;;;;9.67;8.67;;;;;37.22;15.80;100335.69;4881871;29;44842;-84
2022/07/19 11:20:42;;;;;;;;;11.00;11.00;;;;;37.18;15.02;100303.78;4908690;29;45557;-84
2022/07/19 11:23:07;;;;;;;;;12.00;12.00;;;;;37.26;15.63;100307.66;4880926;29;45818;-85
2022/07/19 11:25:36;;;;;;;;;12.00;12.00;;;;;37.41;14.99;100319.88;4880785;29;45537;-85
2022/07/19 11:28:05;;;;;;;;;9.67;9.00;;;;;37.44;14.58;100316.78;4905407;29;45161;-85
2022/07/19 11:30:36;;;;;;;;;5.33;3.67;;;;;37.45;14.87;100307.44;4900559;29;46975;-84
2022/07/19 11:33:05;;;;;;;;;10.67;9.00;;;;;37.44;14.98;100295.47;4898634;29;44881;-84
2022/07/19 11:35:31;;;;;;;;;12.33;12.33;;;;;37.43;15.46;100281.78;4897585;29;45447;-85
2022/07/19 11:38:02;;;;;;;;;11.00;11.00;;;;;37.50;15.02;100282.84;4897602;29;45505;-84
2022/07/19 11:40:36;;;;;;;;;9.00;9.00;;;;;37.56;14.86;100290.50;4896891;29;46288;-84
2022/07/19 11:43:10;;;;;;;;;12.00;10.67;;;;;37.60;15.31;100275.28;4896383;29;44921;-83
2022/07/19 11:45:54;;;;;;;;;16.67;13.33;;;;;37.69;15.06;100275.34;4898303;29;44961;-82
2022/07/19 11:48:30;;;;;;;;;15.33;15.33;;;;;37.77;14.91;100283.69;4897438;29;44904;-82
2022/07/19 11:51:07;;;;;;;;;14.33;13.67;;;;;37.78;15.46;100280.75;4899608;29;45803;-84
2022/07/19 11:53:35;;;;;;;;;12.00;12.00;;;;;37.74;14.98;100270.16;4898907;29;45550;-83
2022/07/19 11:56:00;;;;;;;;;11.33;11.33;;;;;37.65;15.04;100252.59;4916051;29;44891;-84
2022/07/19 11:58:31;;;;;;;;;13.00;12.00;;;;;37.74;14.70;100268.25;4917557;29;44927;-83
2022/07/19 12:01:11;;;;;;;;;13.33;12.67;;;;;37.92;15.03;100276.50;4911271;28;45131;-85
2022/07/19 12:03:54;;;;;;;;;11.00;11.00;;;;;37.85;14.79;100239.31;4893929;29;44856;-85
2022/07/19 12:06:34;;;;;;;;;11.00;11.00;;;;;38.08;15.45;100281.25;4885862;29;45449;-85
2022/07/19 12:09:08;;;;;;;;;12.67;12.67;;;;;38.11;15.27;100280.91;4891658;29;45557;-84
2022/07/19 12:11:42;;;;;;;;;12.00;12.00;;;;;38.11;14.49;100263.38;4891673;29;45601;-86
2022/07/19 12:14:17;;;;;;;;;11.33;11.33;;;;;38.22;14.52;100271.41;4891809;29;45406;-85
2022/07/19 12:16:42;;;;;;;;;11.67;10.33;;;;;38.25;14.86;100265.50;4908015;29;45412;-82
2022/07/19 12:19:17;;;;;;;;;11.00;10.67;;;;;38.28;15.14;100264.28;4907089;29;45427;-86
2022/07/19 12:21:50;;;;;;;;;11.33;11.33;;;;;38.35;15.20;100259.81;4888755;29;47172;-84
2022/07/19 12:24:23;;;;;;;;;12.00;12.00;;;;;38.40;15.67;100262.91;4894548;29;45511;-84
2022/07/19 12:27:20;;;;;;;;;11.33;11.33;;;;;38.40;15.07;100254.59;4895704;29;44882;-84
2022/07/19 12:29:50;;;;;;;;;12.67;12.67;;;;;38.42;15.35;100255.31;4895173;29;44910;-83
2022/07/19 12:32:28;;;;;;;;;12.00;12.00;;;;;38.45;15.82;100259.66;4894424;29;45461;-83
2022/07/19 12:35:01;;;;;;;;;13.00;12.33;;;;;38.41;15.49;100246.09;4894956;29;44873;-83
2022/07/19 12:37:35;;;;;;;;;12.00;11.67;;;;;38.38;15.61;100253.88;4876456;29;45568;-84
2022/07/19 12:40:06;;;;;;;;;13.00;12.33;;;;;38.31;15.79;100237.03;4905294;28;45587;-82
2022/07/19 12:42:37;;;;;;;;;13.67;11.67;;;;;38.34;16.09;100242.28;4874684;29;46778;-83
2022/07/19 12:45:13;;;;;;;;;14.00;14.00;;;;;38.44;16.50;100253.22;4908736;29;45519;-83
2022/07/19 12:47:40;;;;;;;;;16.67;15.67;;;;;38.47;16.50;100246.44;4878160;29;45458;-81
2022/07/19 12:50:07;;;;;;;;;15.33;12.00;;;;;38.50;16.51;100252.53;4893129;29;45509;-83
2022/07/19 12:52:34;;;;;;;;;11.00;11.00;;;;;38.46;16.27;100253.94;4893289;29;46912;-82
2022/07/19 12:55:00;;;;;;;;;13.67;11.00;;;;;38.43;16.46;100238.44;4893544;29;44787;-83
2022/07/19 12:57:28;;;;;;;;;13.67;13.67;;;;;38.44;16.88;100242.13;4909486;29;45350;-83
2022/07/19 12:59:54;;;;;;;;;13.33;12.33;;;;;38.50;16.70;100237.75;4909776;29;45465;-83
2022/07/19 13:02:19;;;;;;;;;14.67;14.67;;;;;38.49;16.52;100233.25;4907772;29;46515;-83
2022/07/19 13:04:46;;;;;;;;;12.00;12.00;;;;;38.47;16.28;100224.22;4890322;29;45421;-83
2022/07/19 13:07:32;;;;;;;;;14.00;12.33;;;;;38.54;16.51;100231.75;4914712;29;44853;-83
2022/07/19 13:09:58;;;;;;;;;16.00;14.00;;;;;38.53;16.23;100229.13;4893756;29;44846;-82
2022/07/19 13:12:24;;;;;;;;;16.67;15.67;;;;;38.58;15.99;100226.69;4892640;29;45683;-82
2022/07/19 13:14:52;;;;;;;;;13.00;13.00;;;;;38.64;16.19;100223.19;4895137;29;45376;-83
2022/07/19 13:17:21;;;;;;;;;12.00;12.00;;;;;38.60;16.39;100219.03;4892563;29;45563;-83
2022/07/19 13:19:46;;;;;;;;;13.33;13.33;;;;;38.61;16.28;100220.78;4904377;29;44973;-83
2022/07/19 13:22:13;;;;;;;;;8.00;7.00;;;;;38.62;16.25;100225.28;4910175;29;47228;-83
2022/07/19 13:24:38;;;;;;;;;14.00;13.67;;;;;38.58;16.38;100212.78;4908742;29;45422;-83
2022/07/19 13:27:45;;;;;;;;;14.67;13.00;;;;;38.59;15.86;100212.63;4893801;29;45487;-84
2022/07/19 13:30:13;;;;;;;;;15.00;12.00;;;;;38.64;16.10;100214.88;4895609;29;44849;-84
2022/07/19 13:32:39;;;;;;;;;15.67;15.67;;;;;38.66;16.58;100211.91;4893303;29;45270;-83
2022/07/19 13:35:06;;;;;;;;;16.67;15.00;;;;;38.73;16.59;100202.72;4892756;29;45412;-82
2022/07/19 13:37:31;;;;;;;;;14.33;13.00;;;;;38.74;16.37;100198.91;4891569;29;45511;-84
2022/07/19 13:39:57;;;;;;;;;14.33;13.33;;;;;38.83;16.94;100196.13;4894142;29;45518;-84
2022/07/19 13:42:22;;;;;;;;;15.33;15.00;;;;;38.90;17.16;100199.91;4894177;29;48319;-83
2022/07/19 13:44:48;;;;;;;;;18.33;16.67;;;;;38.94;17.31;100198.50;4896629;29;45194;-85
2022/07/19 13:47:13;;;;;;;;;16.33;16.00;;;;;39.08;17.05;100197.81;4908234;29;45360;-85
2022/07/19 13:49:39;;;;;;;;;16.00;16.00;;;;;39.20;17.39;100199.19;4884411;29;44751;-84
2022/07/19 13:52:06;;;;;;;;;18.33;18.33;;;;;39.43;17.59;100201.25;4881142;29;46878;-83
2022/07/19 13:54:31;;;;;;;;;17.67;17.67;;;;;40.25;17.47;100198.03;4877753;29;45357;-83
2022/07/19 13:56:58;;;;;;;;;16.00;15.00;;;;;41.71;16.41;100201.53;4896448;29;45378;-84
2022/07/19 13:59:24;;;;;;;;;17.67;17.67;;;;;43.34;14.96;100197.13;4881891;29;45399;-83
2022/07/19 14:01:51;;;;;;;;;18.33;17.67;;;;;44.82;14.35;100185.31;4909827;29;46705;-83
2022/07/19 14:04:16;;;;;;;;;18.67;17.33;;;;;46.08;12.93;100185.00;4891284;29;45522;-83
2022/07/19 14:06:42;;;;;;;;;17.33;16.00;;;;;47.11;12.97;100197.00;4898148;29;44759;-85
2022/07/19 14:09:08;;;;;;;;;16.33;16.33;;;;;47.95;12.38;100200.16;4915023;29;44891;-83
2022/07/19 14:11:35;;;;;;;;;19.33;19.33;;;;;48.72;11.69;100185.34;4898038;29;46758;-84
2022/07/19 14:14:01;;;;;;;;;19.33;19.33;;;;;49.40;10.59;100197.19;4914507;29;45356;-85
2022/07/19 14:16:26;;;;;;;;;20.00;17.67;;;;;49.94;8.80;100199.75;4914409;29;45490;-85
2022/07/19 14:18:52;;;;;;;;;15.67;15.00;;;;;50.24;9.71;100188.22;4893762;29;44830;-85
2022/07/19 14:21:18;;;;;;;;;27.33;26.00;;;;;50.91;10.11;100192.25;4912219;29;45536;-85
2022/07/19 14:23:44;;;;;;;;;15.00;15.00;;;;;51.64;9.70;100195.03;4909963;29;45445;-84
2022/07/19 14:26:10;;;;;;;;;19.33;16.67;;;;;52.12;9.34;100197.03;4877921;29;44833;-83
2022/07/19 14:28:35;;;;;;;;;18.33;18.33;;;;;52.43;9.17;100179.47;4896583;29;45617;-84
2022/07/19 14:31:01;;;;;;;;;17.00;17.00;;;;;52.53;8.56;100191.78;4912575;29;45393;-85
2022/07/19 14:33:27;;;;;;;;;20.00;20.00;;;;;52.49;8.41;100184.94;4894296;29;44844;-85
2022/07/19 14:35:54;;;;;;;;;16.00;15.33;;;;;52.51;8.57;100196.88;4895835;29;45415;-83
2022/07/19 14:38:23;;;;;;;;;15.33;15.33;;;;;52.48;8.06;100188.88;4895239;29;44789;-83
2022/07/19 14:40:50;;;;;;;;;16.67;16.67;;;;;52.37;7.83;100178.56;4897045;29;45664;-84
2022/07/19 14:43:16;;;;;;;;;18.33;17.00;;;;;52.25;8.01;100166.53;4914024;29;44810;-83
2022/07/19 14:45:46;;;;;;;;;18.33;15.00;;;;;52.09;8.61;100176.84;4899666;29;45385;-84
2022/07/19 14:48:15;;;;;;;;;18.00;18.00;;;;;52.41;9.01;100171.22;4915694;28;45615;-84
2022/07/19 14:50:50;;;;;;;;;19.75;18.50;;;;;52.96;8.48;100160.63;4899601;29;47417;-83
2022/07/19 14:53:17;;;;;;;;;14.33;13.33;;;;;53.41;8.15;100167.69;4899128;29;45245;-84
2022/07/19 14:56:03;;;;;;;;;16.67;15.33;;;;;54.26;8.20;100169.44;4915540;29;44965;-84
2022/07/19 14:58:28;;;;;;;;;14.25;14.25;;;;;54.51;7.46;100157.25;4899525;29;45429;-84
2022/07/19 15:00:54;;;;;;;;;17.25;17.25;;;;;54.29;7.97;100158.34;4899092;29;45748;-85
2022/07/19 15:03:19;;;;;;;;;18.25;18.25;;;;;54.53;8.21;100167.19;4897064;29;44825;-85
2022/07/19 15:06:03;;;;;;;;;18.00;16.50;;;;;54.78;7.96;100150.38;4903653;29;45623;-84
2022/07/19 15:08:39;;;;;;;;;19.00;18.50;;;;;55.25;7.99;100152.88;4891460;29;45433;-84
2022/07/19 15:11:05;;;;;;;;;18.25;16.00;;;;;55.71;8.19;100152.66;4876586;29;45239;-84
2022/07/19 15:13:32;;;;;;;;;19.50;19.00;;;;;56.08;7.46;100151.34;4890238;29;45186;-85
2022/07/19 15:15:57;;;;;;;;;21.75;21.50;;;;;56.36;7.55;100145.97;4880911;29;45561;-85
2022/07/19 15:18:23;;;;;;;;;17.75;17.75;;;;;56.44;7.16;100153.94;4877530;29;45411;-85
2022/07/19 15:20:48;;;;;;;;;18.50;18.50;;;;;57.30;6.30;100154.22;4875335;29;48169;-86
2022/07/19 15:23:14;;;;;;;;;17.00;16.00;;;;;56.96;6.59;100142.03;4869641;29;45847;-86
2022/07/19 15:25:39;;;;;;;;;17.50;17.50;;;;;57.14;7.31;100166.16;4865551;29;45367;-86
2022/07/19 15:28:05;;;;;;;;;20.75;18.25;;;;;58.12;6.36;100157.13;4873673;29;45485;-86
2022/07/19 15:30:34;;;;;;;;;16.75;16.25;;;;;58.90;5.46;100177.63;4871099;29;46996;-88
2022/07/19 15:33:01;;;;;;;;;14.50;14.50;;;;;59.31;5.67;100153.88;4873037;29;44861;-84
2022/07/19 15:38:51;;;;;;;;;17.50;17.25;;;;;60.60;4.11;100161.19;4875694;29;44815;-86
2022/07/19 15:41:20;;;;;;;;;17.00;17.00;;;;;60.27;5.65;100152.84;4875356;29;45207;-84
2022/07/19 15:43:46;;;;;;;;;21.25;18.25;;;;;60.53;5.09;100161.66;4875497;29;44878;-84
2022/07/19 15:46:12;;;;;;;;;16.25;15.25;;;;;61.00;5.29;100169.91;4876320;28;45424;-86
2022/07/19 15:52:02;;;;;;;;;16.00;16.00;;;;;62.04;5.18;100159.88;4873341;29;45889;-86
2022/07/19 16:02:28;;;;;;;;;;;;;;;;;;;;;
2022/07/19 16:12:41;;;;;;;;;;;;;;;;;;;;;
2022/07/19 16:15:33;;;;;;;;;;;;;;;;;;;;;
2022/07/19 16:22:28;;;;;;;;;;;;;;;;;;;;;
2022/07/19 16:28:54;;;;;;;;;;;;;;;;;;;;;
2022/07/19 16:31:41;;;;;;;;;;;;;;;;;;;;;
2022/07/19 16:34:25;;;;;;;;;17.25;17.25;;;;;56.49;6.76;100151.03;4737109;30;72985;-84
2022/07/19 16:37:17;;;;;;;;;;;;;;;;;;;;;
2022/07/19 16:40:23;;;;;;;;;22.25;21.00;;;;;56.54;6.66;100163.56;4728365;30;64627;-84
2022/07/19 16:43:42;;;;;;;;;16.00;14.75;;;;;56.28;6.68;100178.91;4744864;29;45522;-85
2022/07/19 16:49:47;;;;;;;;;15.75;15.75;;;;;55.30;7.29;100158.53;4759665;29;44962;-84
2022/07/19 16:52:23;;;;;;;;;18.50;17.00;;;;;54.79;7.80;100152.97;4749879;29;45029;-84
2022/07/19 16:55:26;;;;;;;;;18.75;18.75;;;;;52.73;8.86;100167.53;4761450;29;45551;-84
2022/07/19 16:58:33;;;;;;;;;26.25;26.25;;;;;50.05;9.41;100150.75;4803695;29;44710;-84
2022/07/19 17:01:35;;;;;;;;;25.25;23.75;;;;;48.34;10.71;100175.34;4816331;29;44888;-84
2022/07/19 17:04:40;;;;;;;;;;;;;;;;;;;;;
2022/07/19 17:07:20;;;;;;;;;;;;;;;;;;;;;
2022/07/19 17:10:00;;;;;;;;;;;;;;;;;;;;;
2022/07/19 17:12:42;;;;;;;;;17.00;16.75;;;;;44.13;14.73;100204.22;4832734;29;69577;-84
2022/07/19 17:18:16;;;;;;;;;19.75;19.75;;;;;42.83;15.90;100203.84;4779903;29;46057;-84
2022/07/19 17:21:11;;;;;;;;;21.50;21.00;;;;;42.36;16.67;100208.97;4781887;29;45378;-84
2022/07/19 17:23:36;;;;;;;;;21.75;21.75;;;;;42.07;16.43;100217.47;4767750;29;45440;-84
2022/07/19 17:26:02;;;;;;;;;25.75;25.75;;;;;41.72;17.07;100211.66;4781076;29;44871;-85
2022/07/19 17:28:27;;;;;;;;;35.50;30.25;;;;;41.49;17.11;100218.19;4780972;29;46791;-84
2022/07/19 17:30:52;;;;;;;;;37.50;33.50;;;;;41.24;19.05;100216.72;4765740;29;45452;-85
2022/07/19 17:33:18;;;;;;;;;54.00;45.00;;;;;41.02;20.22;100226.88;4781958;29;45514;-84
2022/07/19 17:35:43;;;;;;;;;60.00;48.50;;;;;40.66;20.56;100239.53;4779837;29;45425;-84
2022/07/19 17:38:09;;;;;;;;;63.50;53.00;;;;;40.30;22.44;100256.88;4779015;29;46859;-84
2022/07/19 17:40:35;;;;;;;;;64.50;53.00;;;;;39.96;24.29;100272.00;4779181;29;44884;-84
2022/07/19 17:43:01;;;;;;;;;61.25;50.00;;;;;39.69;25.92;100280.78;4783517;29;45433;-84
2022/07/19 17:45:27;;;;;;;;;66.75;57.75;;;;;39.36;25.66;100284.50;4815243;29;45525;-84
2022/07/19 17:47:53;;;;;;;;;66.00;59.25;;;;;39.10;27.86;100287.50;4815423;29;45294;-84
2022/07/19 17:50:18;;;;;;;;;65.00;53.00;;;;;38.84;27.04;100289.56;4818420;29;45789;-84
2022/07/19 17:52:44;;;;;;;;;66.00;54.25;;;;;38.47;27.66;100290.91;4818726;29;45408;-84
2022/07/19 17:55:10;;;;;;;;;65.00;53.75;;;;;38.16;28.07;100300.72;4834809;29;45362;-84
2022/07/19 17:57:44;;;;;;;;;63.00;52.00;;;;;37.86;28.41;100302.13;4875849;29;46105;-84
2022/07/19 18:00:11;;;;;;;;;64.50;54.75;;;;;37.64;28.84;100317.47;4876267;29;45391;-85
2022/07/19 18:02:36;;;;;;;;;67.00;56.00;;;;;37.40;28.87;100304.28;4876439;29;45249;-84
2022/07/19 18:05:02;;;;;;;;;70.25;62.25;;;;;37.27;29.53;100315.81;4875599;29;44749;-83
2022/07/19 18:07:29;;;;;;;;;71.00;65.50;;;;;37.04;30.24;100310.72;4873755;29;46264;-83
2022/07/19 18:09:54;;;;;;;;;73.50;70.50;;;;;36.79;31.20;100317.97;4881290;29;45432;-84
2022/07/19 18:12:20;;;;;;;;;76.25;75.00;;;;;36.52;30.81;100327.22;4877035;29;45524;-84
2022/07/19 18:14:45;;;;;;;;;85.67;83.33;;;;;36.31;31.15;100321.94;4877206;29;45516;-84
2022/07/19 18:17:11;;;;;;;;;95.00;89.33;;;;;36.17;31.21;100328.88;4880051;29;46650;-84
2022/07/19 18:19:36;;;;;;;;;97.00;89.00;;;;;35.99;33.87;100333.47;4881907;29;45433;-84
2022/07/19 18:22:03;;;;;;;;;97.00;94.67;;;;;35.79;34.49;100329.91;4899993;29;45296;-84
2022/07/19 18:24:29;;;;;;;;;94.33;93.67;;;;;35.60;32.79;100342.75;4900765;29;45342;-83
2022/07/19 18:26:55;;;;;;;;;94.25;91.75;;;;;35.43;34.07;100340.75;4865979;29;47119;-83
2022/07/19 18:29:21;;;;;;;;;92.50;89.00;;;;;35.32;33.86;100340.97;4880205;29;44741;-84
2022/07/19 18:31:46;;;;;;;;;89.50;86.25;;;;;35.16;33.81;100336.88;4879597;29;45283;-84
2022/07/19 18:34:12;;;;;;;;;85.75;84.25;;;;;35.14;34.01;100341.66;4880019;29;45359;-85
2022/07/19 18:36:38;;;;;;;;;86.50;83.25;;;;;35.11;33.68;100341.97;4877183;29;47910;-85
2022/07/19 18:39:03;;;;;;;;;86.00;78.75;;;;;35.01;34.36;100341.97;4876589;29;45598;-83
2022/07/19 18:41:28;;;;;;;;;83.25;78.50;;;;;34.92;34.65;100358.56;4895351;29;46047;-84
2022/07/19 18:43:54;;;;;;;;;75.25;73.25;;;;;34.81;35.42;100351.28;4877982;29;45556;-83
2022/07/19 18:46:20;;;;;;;;;73.75;69.25;;;;;34.61;35.58;100354.00;4894380;29;46175;-84
2022/07/19 18:48:45;;;;;;;;;76.00;72.50;;;;;34.50;35.96;100343.09;4879122;29;45483;-83
2022/07/19 18:51:11;;;;;;;;;73.00;68.25;;;;;34.41;35.75;100350.31;4895183;29;45423;-83
2022/07/19 18:53:38;;;;;;;;;72.25;66.25;;;;;34.36;36.11;100352.66;4899427;29;45347;-84
2022/07/19 18:56:08;;;;;;;;;71.00;63.25;;;;;34.32;35.95;100350.31;4898541;29;45529;-83
2022/07/19 18:58:35;;;;;;;;;71.75;63.00;;;;;34.22;36.08;100342.03;4898281;29;45440;-86
2022/07/19 19:01:00;;;;;;;;;71.50;65.00;;;;;34.21;37.38;100357.69;4882583;29;45383;-84
2022/07/19 19:03:26;;;;;;;;;72.00;61.25;;;;;34.08;36.82;100360.66;4883009;29;45434;-84
2022/07/19 19:05:52;;;;;;;;;69.00;61.00;;;;;34.02;37.29;100374.16;4882746;29;47570;-85
2022/07/19 19:08:17;;;;;;;;;68.00;59.75;;;;;33.87;37.14;100362.59;4895766;29;45379;-84
2022/07/19 19:10:43;;;;;;;;;68.50;57.00;;;;;33.84;36.53;100384.97;4875051;29;45504;-84
2022/07/19 19:13:09;;;;;;;;;69.25;60.50;;;;;33.76;37.37;100390.31;4877038;29;45408;-84
2022/07/19 19:15:34;;;;;;;;;66.50;57.50;;;;;33.72;37.14;100402.63;4875587;29;44904;-84
2022/07/19 19:18:01;;;;;;;;;67.00;56.50;;;;;33.64;37.67;100412.44;4879309;29;44876;-84
2022/07/19 19:20:27;;;;;;;;;63.50;53.00;;;;;33.60;37.41;100401.78;4862986;29;44763;-84
2022/07/19 19:22:53;;;;;;;;;68.00;57.75;;;;;33.51;36.93;100408.09;4878238;29;44845;-84
2022/07/19 19:25:19;;;;;;;;;66.00;52.50;;;;;33.44;37.36;100405.00;4877236;29;47017;-84
2022/07/19 19:27:45;;;;;;;;;59.50;49.00;;;;;33.31;37.71;100404.31;4860205;29;45445;-84
2022/07/19 19:30:12;;;;;;;;;57.25;47.25;;;;;33.27;37.68;100421.16;4877339;29;45552;-84
2022/07/19 19:32:37;;;;;;;;;55.00;45.75;;;;;33.18;37.36;100427.44;4876132;29;45478;-85
2022/07/19 19:35:04;;;;;;;;;51.25;43.00;;;;;33.12;37.73;100450.00;4873251;29;48171;-84
2022/07/19 19:37:31;;;;;;;;;45.25;38.00;;;;;33.00;37.75;100454.66;4873139;29;45716;-84
2022/07/19 19:40:46;;;;;;;;;41.25;36.00;;;;;32.86;38.54;100460.47;4874047;29;45500;-84
2022/07/19 19:43:14;;;;;;;;;39.75;33.00;;;;;32.70;37.75;100460.88;4873946;29;45388;-84
2022/07/19 19:45:40;;;;;;;;;39.00;33.25;;;;;32.63;38.48;100478.91;4873218;29;47128;-84